sensor_id;sensor_type;location;lat;lon;timestamp;P1;durP1;ratioP1;P2;durP2;ratioP2
27580;SDS011;63557;52.302;7.964;2023-06-10T00:02:33;11.02;;;8.57;;
27580;SDS011;63557;52.302;7.964;2023-06-10T00:07:33;14.67;;;9.07;;
27580;SDS011;63557;52.302;7.964;2023-06-10T00:12:38;10.95;;;8.73;;
27580;SDS011;63557;52.302;7.964;2023-06-10T00:17:38;16.15;;;9.20;;
27580;SDS011;63557;52.302;7.964;2023-06-10T00:22:39;13.23;;;9.23;;
27580;SDS011;63557;52.302;7.964;2023-06-10T00:27:39;15.35;;;9.18;;
27580;SDS011;63557;52.302;7.964;2023-06-10T00:32:40;18.15;;;10.18;;
27580;SDS011;63557;52.302;7.964;2023-06-10T00:37:40;20.13;;;10.33;;
27580;SDS011;63557;52.302;7.964;2023-06-10T00:42:40;14.47;;;8.83;;
27580;SDS011;63557;52.302;7.964;2023-06-10T00:47:41;16.70;;;9.45;;
27580;SDS011;63557;52.302;7.964;2023-06-10T00:52:42;15.23;;;9.50;;
27580;SDS011;63557;52.302;7.964;2023-06-10T00:57:45;13.43;;;9.30;;
27580;SDS011;63557;52.302;7.964;2023-06-10T01:02:45;16.70;;;9.55;;
27580;SDS011;63557;52.302;7.964;2023-06-10T01:12:52;17.05;;;8.93;;
27580;SDS011;63557;52.302;7.964;2023-06-10T01:17:55;11.77;;;9.68;;
27580;SDS011;63557;52.302;7.964;2023-06-10T01:22:58;13.88;;;9.38;;
27580;SDS011;63557;52.302;7.964;2023-06-10T01:28:02;12.85;;;8.60;;
27580;SDS011;63557;52.302;7.964;2023-06-10T01:33:03;17.20;;;9.00;;
27580;SDS011;63557;52.302;7.964;2023-06-10T01:38:06;15.95;;;9.38;;
27580;SDS011;63557;52.302;7.964;2023-06-10T01:43:07;16.65;;;9.82;;
27580;SDS011;63557;52.302;7.964;2023-06-10T01:48:07;15.07;;;8.93;;
27580;SDS011;63557;52.302;7.964;2023-06-10T01:53:08;15.32;;;9.48;;
27580;SDS011;63557;52.302;7.964;2023-06-10T01:58:08;15.33;;;9.77;;
27580;SDS011;63557;52.302;7.964;2023-06-10T02:03:08;16.70;;;9.77;;
27580;SDS011;63557;52.302;7.964;2023-06-10T02:08:09;12.23;;;9.10;;
27580;SDS011;63557;52.302;7.964;2023-06-10T02:13:10;13.38;;;9.68;;
27580;SDS011;63557;52.302;7.964;2023-06-10T02:18:10;17.97;;;9.80;;
27580;SDS011;63557;52.302;7.964;2023-06-10T02:23:12;16.40;;;9.63;;
27580;SDS011;63557;52.302;7.964;2023-06-10T02:28:12;17.05;;;9.68;;
27580;SDS011;63557;52.302;7.964;2023-06-10T02:33:13;16.40;;;9.10;;
27580;SDS011;63557;52.302;7.964;2023-06-10T02:38:14;13.25;;;9.13;;
27580;SDS011;63557;52.302;7.964;2023-06-10T02:43:14;17.90;;;10.07;;
27580;SDS011;63557;52.302;7.964;2023-06-10T02:48:16;13.18;;;9.68;;
27580;SDS011;63557;52.302;7.964;2023-06-10T02:53:16;15.30;;;9.33;;
27580;SDS011;63557;52.302;7.964;2023-06-10T02:58:22;13.90;;;8.93;;
27580;SDS011;63557;52.302;7.964;2023-06-10T03:03:23;16.58;;;10.25;;
27580;SDS011;63557;52.302;7.964;2023-06-10T03:08:33;15.65;;;9.88;;
27580;SDS011;63557;52.302;7.964;2023-06-10T03:13:39;11.10;;;9.05;;
27580;SDS011;63557;52.302;7.964;2023-06-10T03:18:42;18.17;;;10.13;;
27580;SDS011;63557;52.302;7.964;2023-06-10T03:23:43;16.65;;;9.15;;
27580;SDS011;63557;52.302;7.964;2023-06-10T03:28:43;14.55;;;8.55;;
27580;SDS011;63557;52.302;7.964;2023-06-10T03:33:44;13.25;;;8.52;;
27580;SDS011;63557;52.302;7.964;2023-06-10T03:38:45;17.27;;;9.23;;
27580;SDS011;63557;52.302;7.964;2023-06-10T03:43:47;11.23;;;8.18;;
27580;SDS011;63557;52.302;7.964;2023-06-10T03:48:48;15.93;;;9.13;;
27580;SDS011;63557;52.302;7.964;2023-06-10T03:53:49;14.65;;;8.88;;
27580;SDS011;63557;52.302;7.964;2023-06-10T03:58:49;10.93;;;8.30;;
27580;SDS011;63557;52.302;7.964;2023-06-10T04:03:50;14.63;;;8.52;;
27580;SDS011;63557;52.302;7.964;2023-06-10T04:08:51;16.70;;;9.05;;
27580;SDS011;63557;52.302;7.964;2023-06-10T04:13:52;15.80;;;9.55;;
27580;SDS011;63557;52.302;7.964;2023-06-10T04:18:52;19.30;;;9.73;;
27580;SDS011;63557;52.302;7.964;2023-06-10T04:23:53;16.85;;;9.60;;
27580;SDS011;63557;52.302;7.964;2023-06-10T04:28:54;12.52;;;9.00;;
27580;SDS011;63557;52.302;7.964;2023-06-10T04:33:55;13.77;;;8.10;;
27580;SDS011;63557;52.302;7.964;2023-06-10T04:38:55;13.38;;;8.25;;
27580;SDS011;63557;52.302;7.964;2023-06-10T04:43:56;13.70;;;8.48;;
27580;SDS011;63557;52.302;7.964;2023-06-10T04:48:58;14.55;;;8.38;;
27580;SDS011;63557;52.302;7.964;2023-06-10T04:53:59;11.83;;;7.97;;
27580;SDS011;63557;52.302;7.964;2023-06-10T04:59:03;12.88;;;8.32;;
27580;SDS011;63557;52.302;7.964;2023-06-10T05:04:04;15.40;;;8.70;;
27580;SDS011;63557;52.302;7.964;2023-06-10T05:09:04;12.10;;;8.13;;
27580;SDS011;63557;52.302;7.964;2023-06-10T05:14:05;14.30;;;9.00;;
27580;SDS011;63557;52.302;7.964;2023-06-10T05:19:05;15.33;;;9.57;;
27580;SDS011;63557;52.302;7.964;2023-06-10T05:24:06;14.73;;;8.73;;
27580;SDS011;63557;52.302;7.964;2023-06-10T05:29:07;13.73;;;8.60;;
27580;SDS011;63557;52.302;7.964;2023-06-10T05:34:09;14.23;;;8.68;;
27580;SDS011;63557;52.302;7.964;2023-06-10T05:39:09;12.40;;;8.27;;
27580;SDS011;63557;52.302;7.964;2023-06-10T05:44:10;20.48;;;9.30;;
27580;SDS011;63557;52.302;7.964;2023-06-10T05:49:10;12.50;;;7.73;;
27580;SDS011;63557;52.302;7.964;2023-06-10T05:54:11;18.40;;;9.00;;
27580;SDS011;63557;52.302;7.964;2023-06-10T05:59:11;26.03;;;10.40;;
27580;SDS011;63557;52.302;7.964;2023-06-10T06:04:12;20.27;;;8.60;;
27580;SDS011;63557;52.302;7.964;2023-06-10T06:09:12;16.27;;;9.10;;
27580;SDS011;63557;52.302;7.964;2023-06-10T06:14:13;10.50;;;8.15;;
27580;SDS011;63557;52.302;7.964;2023-06-10T06:19:13;11.33;;;8.60;;
27580;SDS011;63557;52.302;7.964;2023-06-10T06:24:14;18.52;;;9.00;;
27580;SDS011;63557;52.302;7.964;2023-06-10T06:29:15;23.10;;;9.30;;
27580;SDS011;63557;52.302;7.964;2023-06-10T06:34:15;12.77;;;8.13;;
27580;SDS011;63557;52.302;7.964;2023-06-10T06:39:16;18.40;;;8.70;;
27580;SDS011;63557;52.302;7.964;2023-06-10T06:44:17;26.77;;;9.35;;
27580;SDS011;63557;52.302;7.964;2023-06-10T06:49:18;25.80;;;8.55;;
27580;SDS011;63557;52.302;7.964;2023-06-10T06:54:18;15.37;;;8.13;;
27580;SDS011;63557;52.302;7.964;2023-06-10T06:59:18;12.70;;;8.30;;
27580;SDS011;63557;52.302;7.964;2023-06-10T07:04:19;14.65;;;7.15;;
27580;SDS011;63557;52.302;7.964;2023-06-10T07:09:21;16.20;;;8.02;;
27580;SDS011;63557;52.302;7.964;2023-06-10T07:14:22;15.95;;;8.85;;
27580;SDS011;63557;52.302;7.964;2023-06-10T07:19:22;17.80;;;8.53;;
27580;SDS011;63557;52.302;7.964;2023-06-10T07:24:22;15.30;;;8.33;;
27580;SDS011;63557;52.302;7.964;2023-06-10T07:29:23;13.13;;;8.40;;
27580;SDS011;63557;52.302;7.964;2023-06-10T07:34:23;12.60;;;8.17;;
27580;SDS011;63557;52.302;7.964;2023-06-10T07:39:23;18.37;;;8.60;;
27580;SDS011;63557;52.302;7.964;2023-06-10T07:44:24;11.43;;;8.30;;
27580;SDS011;63557;52.302;7.964;2023-06-10T07:49:24;13.60;;;8.37;;
27580;SDS011;63557;52.302;7.964;2023-06-10T07:54:24;17.92;;;8.63;;
27580;SDS011;63557;52.302;7.964;2023-06-10T07:59:25;17.33;;;8.65;;
27580;SDS011;63557;52.302;7.964;2023-06-10T08:04:26;17.23;;;8.63;;
27580;SDS011;63557;52.302;7.964;2023-06-10T08:09:27;12.40;;;8.00;;
27580;SDS011;63557;52.302;7.964;2023-06-10T08:14:27;12.53;;;7.90;;
27580;SDS011;63557;52.302;7.964;2023-06-10T08:19:27;19.73;;;9.03;;
27580;SDS011;63557;52.302;7.964;2023-06-10T08:24:28;15.30;;;8.20;;
27580;SDS011;63557;52.302;7.964;2023-06-10T08:29:28;16.70;;;8.40;;
27580;SDS011;63557;52.302;7.964;2023-06-10T08:34:33;12.40;;;8.18;;
27580;SDS011;63557;52.302;7.964;2023-06-10T08:39:33;10.73;;;7.70;;
27580;SDS011;63557;52.302;7.964;2023-06-10T08:44:35;15.70;;;8.20;;
27580;SDS011;63557;52.302;7.964;2023-06-10T08:49:38;16.73;;;7.95;;
27580;SDS011;63557;52.302;7.964;2023-06-10T08:54:42;10.15;;;7.15;;
27580;SDS011;63557;52.302;7.964;2023-06-10T08:59:42;12.38;;;6.93;;
27580;SDS011;63557;52.302;7.964;2023-06-10T09:04:43;14.27;;;7.60;;
27580;SDS011;63557;52.302;7.964;2023-06-10T09:09:44;13.15;;;7.57;;
27580;SDS011;63557;52.302;7.964;2023-06-10T09:14:45;18.45;;;6.95;;
27580;SDS011;63557;52.302;7.964;2023-06-10T09:19:45;14.57;;;7.88;;
27580;SDS011;63557;52.302;7.964;2023-06-10T09:24:46;10.52;;;7.40;;
27580;SDS011;63557;52.302;7.964;2023-06-10T09:29:53;12.20;;;6.00;;
27580;SDS011;63557;52.302;7.964;2023-06-10T09:34:54;12.88;;;7.00;;
27580;SDS011;63557;52.302;7.964;2023-06-10T09:40:01;10.37;;;6.47;;
27580;SDS011;63557;52.302;7.964;2023-06-10T09:45:02;8.70;;;6.40;;
27580;SDS011;63557;52.302;7.964;2023-06-10T09:50:02;9.70;;;7.18;;
27580;SDS011;63557;52.302;7.964;2023-06-10T09:55:03;13.65;;;6.70;;
27580;SDS011;63557;52.302;7.964;2023-06-10T10:00:08;15.65;;;7.30;;
27580;SDS011;63557;52.302;7.964;2023-06-10T10:05:15;11.15;;;6.97;;
27580;SDS011;63557;52.302;7.964;2023-06-10T10:10:18;9.10;;;6.70;;
27580;SDS011;63557;52.302;7.964;2023-06-10T10:15:18;12.93;;;7.05;;
27580;SDS011;63557;52.302;7.964;2023-06-10T10:20:20;12.48;;;7.18;;
27580;SDS011;63557;52.302;7.964;2023-06-10T10:25:28;13.80;;;6.55;;
27580;SDS011;63557;52.302;7.964;2023-06-10T10:30:30;14.85;;;7.00;;
27580;SDS011;63557;52.302;7.964;2023-06-10T10:35:32;13.00;;;6.93;;
27580;SDS011;63557;52.302;7.964;2023-06-10T10:40:33;10.68;;;6.40;;
27580;SDS011;63557;52.302;7.964;2023-06-10T10:45:34;10.95;;;6.43;;
27580;SDS011;63557;52.302;7.964;2023-06-10T10:50:34;12.18;;;6.68;;
27580;SDS011;63557;52.302;7.964;2023-06-10T10:55:35;14.57;;;7.40;;
27580;SDS011;63557;52.302;7.964;2023-06-10T11:00:36;7.83;;;6.53;;
27580;SDS011;63557;52.302;7.964;2023-06-10T11:10:39;8.93;;;5.82;;
27580;SDS011;63557;52.302;7.964;2023-06-10T11:15:43;10.13;;;6.72;;
27580;SDS011;63557;52.302;7.964;2023-06-10T11:25:49;12.35;;;7.70;;
27580;SDS011;63557;52.302;7.964;2023-06-10T11:30:56;12.43;;;7.67;;
27580;SDS011;63557;52.302;7.964;2023-06-10T11:35:57;10.70;;;7.60;;
27580;SDS011;63557;52.302;7.964;2023-06-10T11:40:58;10.63;;;7.00;;
27580;SDS011;63557;52.302;7.964;2023-06-10T11:45:59;9.77;;;7.27;;
27580;SDS011;63557;52.302;7.964;2023-06-10T11:51:00;12.95;;;8.00;;
27580;SDS011;63557;52.302;7.964;2023-06-10T11:56:00;8.20;;;6.87;;
27580;SDS011;63557;52.302;7.964;2023-06-10T12:01:00;8.27;;;7.10;;
27580;SDS011;63557;52.302;7.964;2023-06-10T12:06:03;9.23;;;6.90;;
27580;SDS011;63557;52.302;7.964;2023-06-10T12:11:03;6.57;;;6.05;;
27580;SDS011;63557;52.302;7.964;2023-06-10T12:16:07;11.93;;;6.90;;
27580;SDS011;63557;52.302;7.964;2023-06-10T12:21:23;7.13;;;6.32;;
27580;SDS011;63557;52.302;7.964;2023-06-10T12:26:33;8.18;;;5.90;;
27580;SDS011;63557;52.302;7.964;2023-06-10T12:31:33;13.38;;;6.90;;
27580;SDS011;63557;52.302;7.964;2023-06-10T12:36:51;10.63;;;6.50;;
27580;SDS011;63557;52.302;7.964;2023-06-10T12:41:53;9.13;;;6.50;;
27580;SDS011;63557;52.302;7.964;2023-06-10T12:46:54;9.98;;;6.82;;
27580;SDS011;63557;52.302;7.964;2023-06-10T12:51:54;6.18;;;5.55;;
27580;SDS011;63557;52.302;7.964;2023-06-10T12:56:55;9.38;;;6.40;;
27580;SDS011;63557;52.302;7.964;2023-06-10T13:01:55;11.57;;;6.13;;
27580;SDS011;63557;52.302;7.964;2023-06-10T13:06:56;8.75;;;6.10;;
27580;SDS011;63557;52.302;7.964;2023-06-10T13:11:56;5.93;;;5.33;;
27580;SDS011;63557;52.302;7.964;2023-06-10T13:16:56;6.27;;;5.67;;
27580;SDS011;63557;52.302;7.964;2023-06-10T13:21:57;7.83;;;6.30;;
27580;SDS011;63557;52.302;7.964;2023-06-10T13:26:57;8.17;;;6.10;;
27580;SDS011;63557;52.302;7.964;2023-06-10T13:31:57;7.57;;;5.93;;
27580;SDS011;63557;52.302;7.964;2023-06-10T13:36:58;6.70;;;6.03;;
27580;SDS011;63557;52.302;7.964;2023-06-10T13:41:59;9.13;;;6.00;;
27580;SDS011;63557;52.302;7.964;2023-06-10T13:46:59;10.70;;;6.10;;
27580;SDS011;63557;52.302;7.964;2023-06-10T13:52:00;7.53;;;5.70;;
27580;SDS011;63557;52.302;7.964;2023-06-10T13:57:00;9.00;;;6.37;;
27580;SDS011;63557;52.302;7.964;2023-06-10T14:02:00;13.77;;;6.75;;
27580;SDS011;63557;52.302;7.964;2023-06-10T14:07:01;6.78;;;5.60;;
27580;SDS011;63557;52.302;7.964;2023-06-10T14:12:02;6.97;;;6.37;;
27580;SDS011;63557;52.302;7.964;2023-06-10T14:17:03;6.63;;;5.80;;
27580;SDS011;63557;52.302;7.964;2023-06-10T14:22:05;10.95;;;6.15;;
27580;SDS011;63557;52.302;7.964;2023-06-10T14:27:07;6.95;;;6.35;;
27580;SDS011;63557;52.302;7.964;2023-06-10T14:32:07;7.88;;;6.10;;
27580;SDS011;63557;52.302;7.964;2023-06-10T14:37:07;11.40;;;6.60;;
27580;SDS011;63557;52.302;7.964;2023-06-10T14:42:08;12.13;;;7.17;;
27580;SDS011;63557;52.302;7.964;2023-06-10T14:47:08;7.03;;;6.25;;
27580;SDS011;63557;52.302;7.964;2023-06-10T14:52:09;8.27;;;5.70;;
27580;SDS011;63557;52.302;7.964;2023-06-10T14:57:09;7.27;;;6.53;;
27580;SDS011;63557;52.302;7.964;2023-06-10T15:02:10;7.38;;;5.85;;
27580;SDS011;63557;52.302;7.964;2023-06-10T15:07:11;7.07;;;6.47;;
27580;SDS011;63557;52.302;7.964;2023-06-10T15:12:11;6.50;;;5.93;;
27580;SDS011;63557;52.302;7.964;2023-06-10T15:17:11;7.50;;;6.57;;
27580;SDS011;63557;52.302;7.964;2023-06-10T15:22:12;10.83;;;7.07;;
27580;SDS011;63557;52.302;7.964;2023-06-10T15:27:13;7.65;;;6.72;;
27580;SDS011;63557;52.302;7.964;2023-06-10T15:32:13;16.48;;;6.85;;
27580;SDS011;63557;52.302;7.964;2023-06-10T15:37:14;8.40;;;6.73;;
27580;SDS011;63557;52.302;7.964;2023-06-10T15:42:15;8.07;;;7.28;;
27580;SDS011;63557;52.302;7.964;2023-06-10T15:47:15;10.83;;;7.10;;
27580;SDS011;63557;52.302;7.964;2023-06-10T15:52:16;13.18;;;7.55;;
27580;SDS011;63557;52.302;7.964;2023-06-10T15:57:16;12.63;;;6.53;;
27580;SDS011;63557;52.302;7.964;2023-06-10T16:02:16;9.97;;;7.33;;
27580;SDS011;63557;52.302;7.964;2023-06-10T16:07:17;8.73;;;7.10;;
27580;SDS011;63557;52.302;7.964;2023-06-10T16:12:17;10.53;;;7.93;;
27580;SDS011;63557;52.302;7.964;2023-06-10T16:17:17;8.70;;;7.70;;
27580;SDS011;63557;52.302;7.964;2023-06-10T16:22:18;7.77;;;6.97;;
27580;SDS011;63557;52.302;7.964;2023-06-10T16:27:18;8.60;;;7.40;;
27580;SDS011;63557;52.302;7.964;2023-06-10T16:32:19;8.73;;;7.35;;
27580;SDS011;63557;52.302;7.964;2023-06-10T16:37:19;12.13;;;7.90;;
27580;SDS011;63557;52.302;7.964;2023-06-10T16:42:20;8.27;;;7.32;;
27580;SDS011;63557;52.302;7.964;2023-06-10T16:47:20;12.37;;;8.53;;
27580;SDS011;63557;52.302;7.964;2023-06-10T16:52:20;9.80;;;8.40;;
27580;SDS011;63557;52.302;7.964;2023-06-10T16:57:21;11.27;;;8.07;;
27580;SDS011;63557;52.302;7.964;2023-06-10T17:02:22;10.73;;;7.88;;
27580;SDS011;63557;52.302;7.964;2023-06-10T17:07:23;9.13;;;8.23;;
27580;SDS011;63557;52.302;7.964;2023-06-10T17:12:23;11.90;;;7.97;;
27580;SDS011;63557;52.302;7.964;2023-06-10T17:17:24;13.95;;;7.70;;
27580;SDS011;63557;52.302;7.964;2023-06-10T17:22:25;15.77;;;8.07;;
27580;SDS011;63557;52.302;7.964;2023-06-10T17:27:25;8.33;;;7.53;;
27580;SDS011;63557;52.302;7.964;2023-06-10T17:32:25;12.50;;;8.40;;
27580;SDS011;63557;52.302;7.964;2023-06-10T17:37:26;9.93;;;8.93;;
27580;SDS011;63557;52.302;7.964;2023-06-10T17:42:26;11.17;;;8.43;;
27580;SDS011;63557;52.302;7.964;2023-06-10T17:47:26;9.17;;;8.30;;
27580;SDS011;63557;52.302;7.964;2023-06-10T17:52:26;10.27;;;8.37;;
27580;SDS011;63557;52.302;7.964;2023-06-10T17:57:27;12.37;;;8.77;;
27580;SDS011;63557;52.302;7.964;2023-06-10T18:02:28;11.68;;;9.05;;
27580;SDS011;63557;52.302;7.964;2023-06-10T18:07:28;11.43;;;9.10;;
27580;SDS011;63557;52.302;7.964;2023-06-10T18:12:29;12.63;;;9.40;;
27580;SDS011;63557;52.302;7.964;2023-06-10T18:17:29;17.30;;;10.00;;
27580;SDS011;63557;52.302;7.964;2023-06-10T18:22:30;14.15;;;9.65;;
27580;SDS011;63557;52.302;7.964;2023-06-10T18:27:33;10.17;;;9.10;;
27580;SDS011;63557;52.302;7.964;2023-06-10T18:32:34;12.77;;;10.23;;
27580;SDS011;63557;52.302;7.964;2023-06-10T18:37:34;13.50;;;9.83;;
27580;SDS011;63557;52.302;7.964;2023-06-10T18:42:35;12.27;;;9.20;;
27580;SDS011;63557;52.302;7.964;2023-06-10T18:47:35;11.10;;;9.80;;
27580;SDS011;63557;52.302;7.964;2023-06-10T18:52:35;12.37;;;9.03;;
27580;SDS011;63557;52.302;7.964;2023-06-10T18:57:36;18.23;;;9.57;;
27580;SDS011;63557;52.302;7.964;2023-06-10T19:02:36;13.60;;;10.13;;
27580;SDS011;63557;52.302;7.964;2023-06-10T19:07:36;14.67;;;10.13;;
27580;SDS011;63557;52.302;7.964;2023-06-10T19:12:37;13.20;;;10.33;;
27580;SDS011;63557;52.302;7.964;2023-06-10T19:17:37;11.37;;;9.83;;
27580;SDS011;63557;52.302;7.964;2023-06-10T19:22:37;12.13;;;10.07;;
27580;SDS011;63557;52.302;7.964;2023-06-10T19:27:38;12.33;;;11.03;;
27580;SDS011;63557;52.302;7.964;2023-06-10T19:32:38;11.90;;;10.47;;
27580;SDS011;63557;52.302;7.964;2023-06-10T19:37:39;12.80;;;11.50;;
27580;SDS011;63557;52.302;7.964;2023-06-10T19:42:39;15.45;;;12.23;;
27580;SDS011;63557;52.302;7.964;2023-06-10T19:47:39;17.03;;;12.47;;
27580;SDS011;63557;52.302;7.964;2023-06-10T19:52:40;16.07;;;14.40;;
27580;SDS011;63557;52.302;7.964;2023-06-10T19:57:40;17.13;;;13.00;;
27580;SDS011;63557;52.302;7.964;2023-06-10T20:02:40;16.07;;;14.40;;
27580;SDS011;63557;52.302;7.964;2023-06-10T20:07:41;15.20;;;11.77;;
27580;SDS011;63557;52.302;7.964;2023-06-10T20:12:41;19.67;;;12.23;;
27580;SDS011;63557;52.302;7.964;2023-06-10T20:17:42;13.80;;;11.48;;
27580;SDS011;63557;52.302;7.964;2023-06-10T20:22:42;11.70;;;10.53;;
27580;SDS011;63557;52.302;7.964;2023-06-10T20:27:42;12.90;;;11.17;;
27580;SDS011;63557;52.302;7.964;2023-06-10T20:32:43;13.93;;;11.10;;
27580;SDS011;63557;52.302;7.964;2023-06-10T20:37:43;12.60;;;10.90;;
27580;SDS011;63557;52.302;7.964;2023-06-10T20:42:44;14.30;;;11.02;;
27580;SDS011;63557;52.302;7.964;2023-06-10T20:47:44;12.30;;;10.03;;
27580;SDS011;63557;52.302;7.964;2023-06-10T20:52:44;14.20;;;10.60;;
27580;SDS011;63557;52.302;7.964;2023-06-10T20:57:45;11.10;;;9.93;;
27580;SDS011;63557;52.302;7.964;2023-06-10T21:02:45;15.65;;;11.30;;
27580;SDS011;63557;52.302;7.964;2023-06-10T21:07:45;12.10;;;10.33;;
27580;SDS011;63557;52.302;7.964;2023-06-10T21:12:47;10.98;;;10.00;;
27580;SDS011;63557;52.302;7.964;2023-06-10T21:17:47;12.40;;;9.55;;
27580;SDS011;63557;52.302;7.964;2023-06-10T21:22:47;13.33;;;9.77;;
27580;SDS011;63557;52.302;7.964;2023-06-10T21:27:48;12.77;;;9.83;;
27580;SDS011;63557;52.302;7.964;2023-06-10T21:32:48;12.13;;;10.60;;
27580;SDS011;63557;52.302;7.964;2023-06-10T21:37:49;13.03;;;11.40;;
27580;SDS011;63557;52.302;7.964;2023-06-10T21:42:49;14.40;;;11.57;;
27580;SDS011;63557;52.302;7.964;2023-06-10T21:47:49;13.70;;;10.63;;
27580;SDS011;63557;52.302;7.964;2023-06-10T21:52:50;13.87;;;10.63;;
27580;SDS011;63557;52.302;7.964;2023-06-10T21:57:50;13.63;;;10.53;;
27580;SDS011;63557;52.302;7.964;2023-06-10T22:02:50;12.10;;;10.95;;
27580;SDS011;63557;52.302;7.964;2023-06-10T22:07:51;18.77;;;12.67;;
27580;SDS011;63557;52.302;7.964;2023-06-10T22:12:51;14.15;;;11.18;;
27580;SDS011;63557;52.302;7.964;2023-06-10T22:17:52;13.10;;;11.65;;
27580;SDS011;63557;52.302;7.964;2023-06-10T22:22:52;14.03;;;11.60;;
27580;SDS011;63557;52.302;7.964;2023-06-10T22:27:53;11.52;;;10.43;;
27580;SDS011;63557;52.302;7.964;2023-06-10T22:32:53;14.70;;;10.80;;
27580;SDS011;63557;52.302;7.964;2023-06-10T22:37:54;13.20;;;11.40;;
27580;SDS011;63557;52.302;7.964;2023-06-10T22:42:54;15.48;;;11.52;;
27580;SDS011;63557;52.302;7.964;2023-06-10T22:47:56;14.35;;;11.63;;
27580;SDS011;63557;52.302;7.964;2023-06-10T22:52:56;14.23;;;12.30;;
27580;SDS011;63557;52.302;7.964;2023-06-10T22:57:56;14.47;;;11.47;;
27580;SDS011;63557;52.302;7.964;2023-06-10T23:02:57;12.60;;;11.30;;
27580;SDS011;63557;52.302;7.964;2023-06-10T23:07:57;12.63;;;11.33;;
27580;SDS011;63557;52.302;7.964;2023-06-10T23:12:57;12.40;;;11.10;;
27580;SDS011;63557;52.302;7.964;2023-06-10T23:17:58;14.83;;;11.73;;
27580;SDS011;63557;52.302;7.964;2023-06-10T23:23:00;14.23;;;10.82;;
27580;SDS011;63557;52.302;7.964;2023-06-10T23:28:01;14.38;;;11.27;;
27580;SDS011;63557;52.302;7.964;2023-06-10T23:33:01;12.67;;;11.40;;
27580;SDS011;63557;52.302;7.964;2023-06-10T23:38:02;12.50;;;11.25;;
27580;SDS011;63557;52.302;7.964;2023-06-10T23:43:02;16.37;;;11.83;;
27580;SDS011;63557;52.302;7.964;2023-06-10T23:48:02;13.07;;;10.77;;
27580;SDS011;63557;52.302;7.964;2023-06-10T23:53:03;12.80;;;11.35;;
27580;SDS011;63557;52.302;7.964;2023-06-10T23:58:04;14.55;;;11.68;;
